Terminal Aerodrome Forecast
Issued by NWS Mt. Holly, NJ

Home | Current Version | Previous Version | Text Only | Print | Product List | Glossary On
Versions: 1 2 3 4 5 6 7 8 9 10 11 12 13 14 15 16 17 18
145
FTUS41 KPHI 251729
TAFACY
TAF
KACY 251729Z 2518/2618 25009G20KT P6SM BKN060 OVC150
     FM252300 25009G20KT P6SM VCTS SCT040CB BKN150
      TEMPO 2600/2602 32015G30KT 3SM TSRA SCT020 OVC040CB
     FM260300 20006KT P6SM BKN100
     FM261500 30008KT P6SM SCT050=

USA.gov is the U.S. government's official web portal to all federal, state and local government web resources and services.